createdAt,value
2022-11-16T00:00:22.930Z,97687.56
2022-11-16T00:02:52.180Z,97679.28
2022-11-16T00:05:23.063Z,97681.16
2022-11-16T00:07:52.703Z,97687.56
2022-11-16T00:10:19.880Z,97641.16
2022-11-16T00:12:46.930Z,97645.31
2022-11-16T00:15:13.987Z,97676.59
2022-11-16T00:17:40.970Z,97668.13
2022-11-16T00:20:08.775Z,97664.59
2022-11-16T00:22:35.792Z,97665.59
2022-11-16T00:25:02.816Z,97668.13
2022-11-16T00:27:29.838Z,97674.34
2022-11-16T00:29:56.801Z,97668.13
2022-11-16T00:32:23.949Z,97671.44
2022-11-16T00:34:50.985Z,97683.03
2022-11-16T00:37:17.986Z,97669.56
2022-11-16T00:39:45.004Z,97666.88
2022-11-16T00:42:12.068Z,97674.09
2022-11-16T00:44:39.049Z,97681.34
2022-11-16T00:47:06.043Z,97677.63
2022-11-16T00:49:33.143Z,97675.13
2022-11-16T00:52:00.131Z,97676.81
2022-11-16T00:54:27.105Z,97654.03
2022-11-16T00:56:54.113Z,97649.47
2022-11-16T00:59:21.116Z,97655.66
2022-11-16T01:01:48.169Z,97651.31
2022-11-16T01:04:15.288Z,97647.56
2022-11-16T01:06:42.331Z,97646.97
2022-11-16T01:09:09.325Z,97639.72
2022-11-16T01:11:55.327Z,97645.94
2022-11-16T01:14:22.377Z,97644.28
2022-11-16T01:16:51.127Z,97640.75
2022-11-16T01:19:18.146Z,97633.69
2022-11-16T01:21:45.117Z,97630.81
2022-11-16T01:24:12.091Z,97631.84
2022-11-16T01:26:39.177Z,97631.22
2022-11-16T01:29:06.224Z,97620.03
2022-11-16T01:31:33.220Z,97623.97
2022-11-16T01:34:00.189Z,97613.41
2022-11-16T01:36:27.238Z,97606.16
2022-11-16T01:38:54.405Z,97595.81
2022-11-16T01:41:24.199Z,97605.34
2022-11-16T01:43:55.878Z,97593.50
2022-11-16T01:46:24.419Z,97594.56
2022-11-16T01:49:04.299Z,97592.72
2022-11-16T01:51:32.810Z,97592.91
2022-11-16T01:54:03.200Z,97587.31
2022-11-16T01:56:33.143Z,97578.41
2022-11-16T01:59:00.278Z,97583.59
2022-11-16T02:01:27.389Z,97581.09
2022-11-16T02:03:54.745Z,97579.44
2022-11-16T02:07:15.584Z,97577.38
2022-11-16T02:10:44.722Z,97575.28
2022-11-16T02:13:58.529Z,97579.66
2022-11-16T02:17:04.212Z,97573.44
2022-11-16T02:20:17.780Z,97571.56
2022-11-16T02:23:10.328Z,97582.34
2022-11-16T02:25:55.501Z,97574.50
2022-11-16T02:28:25.282Z,97573.66
2022-11-16T02:30:55.969Z,97562.06
2022-11-16T02:33:29.594Z,97562.88
2022-11-16T02:36:01.073Z,97556.47
2022-11-16T02:38:32.240Z,97558.38
2022-11-16T02:41:05.310Z,97557.78
2022-11-16T02:43:37.959Z,97551.16
2022-11-16T02:46:10.074Z,97547.19
2022-11-16T02:48:46.509Z,97546.16
2022-11-16T02:51:14.873Z,97523.22
2022-11-16T02:53:52.803Z,97545.94
2022-11-16T02:56:20.490Z,97544.09
2022-11-16T02:58:48.201Z,97551.72
2022-11-16T03:01:24.483Z,97554.22
2022-11-16T03:04:01.330Z,97558.97
2022-11-16T03:06:32.571Z,97553.38
2022-11-16T03:09:07.699Z,97544.28
2022-11-16T03:11:58.215Z,97555.00
2022-11-16T03:14:35.468Z,97552.56
2022-11-16T03:17:05.241Z,97541.78
2022-11-16T03:20:07.694Z,97546.16
2022-11-16T03:22:42.457Z,97551.72
2022-11-16T03:25:13.302Z,97535.56
2022-11-16T03:27:49.202Z,97534.34
2022-11-16T03:30:28.607Z,97538.50
2022-11-16T03:33:00.094Z,97545.34
2022-11-16T03:35:31.032Z,97541.00
2022-11-16T03:38:00.127Z,97544.28
2022-11-16T03:40:31.099Z,97538.91
2022-11-16T03:43:01.363Z,97538.69
2022-11-16T03:45:29.776Z,97525.03
2022-11-16T03:47:56.729Z,97530.00
2022-11-16T03:50:23.764Z,97533.09
2022-11-16T03:52:50.778Z,97528.53
2022-11-16T03:55:17.775Z,97523.97
2022-11-16T03:57:44.823Z,97506.59
2022-11-16T04:00:12.938Z,97505.78
2022-11-16T04:02:39.919Z,97510.72
2022-11-16T04:05:25.618Z,97508.03
2022-11-16T04:08:10.985Z,97508.25
2022-11-16T04:10:56.761Z,97506.38
2022-11-16T04:13:47.975Z,97492.94
2022-11-16T04:16:33.437Z,97501.59
2022-11-16T04:19:18.749Z,97492.50
2022-11-16T04:22:20.057Z,97487.94
2022-11-16T04:24:55.352Z,97486.91
2022-11-16T04:27:47.737Z,97483.59
2022-11-16T04:30:15.110Z,97483.38
2022-11-16T04:33:00.296Z,97481.53
2022-11-16T04:35:46.532Z,97476.94
2022-11-16T04:38:13.794Z,97471.56
2022-11-16T04:40:40.739Z,97479.63
2022-11-16T04:43:07.712Z,97476.75
2022-11-16T04:45:53.904Z,97473.22
2022-11-16T04:48:21.363Z,97471.16
2022-11-16T04:50:48.693Z,97473.84
2022-11-16T04:53:16.116Z,97465.13
2022-11-16T04:55:43.043Z,97463.06
2022-11-16T04:58:10.006Z,97463.06
2022-11-16T05:00:36.932Z,97452.69
2022-11-16T05:03:05.535Z,97448.97
2022-11-16T05:05:32.535Z,97444.41
2022-11-16T05:07:59.565Z,97451.44
2022-11-16T05:10:26.990Z,97425.38
2022-11-16T05:12:53.914Z,97439.63
2022-11-16T05:15:20.835Z,97429.88
2022-11-16T05:17:47.891Z,97431.34
2022-11-16T05:20:33.457Z,97419.13
2022-11-16T05:23:00.473Z,97431.53
2022-11-16T05:25:28.557Z,97427.81
2022-11-16T05:27:58.231Z,97422.44
2022-11-16T05:30:25.242Z,97420.38
2022-11-16T05:32:52.130Z,97425.13
2022-11-16T05:35:19.093Z,97427.63
2022-11-16T05:37:45.953Z,97419.75
2022-11-16T05:40:13.090Z,97421.41
2022-11-16T05:42:39.999Z,97426.56
2022-11-16T05:45:07.284Z,97413.09
2022-11-16T05:47:34.211Z,97409.81
2022-11-16T05:50:01.148Z,97418.72
2022-11-16T05:52:28.093Z,97414.34
2022-11-16T05:54:54.993Z,97405.91
2022-11-16T05:57:21.923Z,97409.19
2022-11-16T05:59:51.178Z,97408.34
2022-11-16T06:02:18.102Z,97406.28
2022-11-16T06:04:45.056Z,97406.28
2022-11-16T06:07:11.988Z,97407.94
2022-11-16T06:09:38.931Z,97408.16
2022-11-16T06:12:06.032Z,97398.84
2022-11-16T06:14:33.059Z,97408.78
2022-11-16T06:16:59.970Z,97403.41
2022-11-16T06:19:32.060Z,97403.41
2022-11-16T06:21:59.384Z,97399.47
2022-11-16T06:24:26.371Z,97402.97
2022-11-16T06:26:53.278Z,97402.16
2022-11-16T06:29:20.185Z,97400.50
2022-11-16T06:31:47.132Z,97395.13
2022-11-16T06:34:14.105Z,97400.13
2022-11-16T06:36:41.042Z,97403.84
2022-11-16T06:39:08.021Z,97397.84
2022-11-16T06:41:40.194Z,97404.50
2022-11-16T06:44:08.181Z,97406.16
2022-11-16T06:46:35.118Z,97397.47
2022-11-16T06:49:01.979Z,97412.13
2022-11-16T06:51:28.922Z,97403.47
2022-11-16T06:53:55.833Z,97403.84
2022-11-16T06:56:22.761Z,97406.53
2022-11-16T06:58:53.271Z,97410.44
2022-11-16T07:01:20.548Z,97402.16
2022-11-16T07:03:47.534Z,97399.25
2022-11-16T07:06:14.882Z,97397.16
2022-11-16T07:08:41.861Z,97398.81
2022-11-16T07:11:09.901Z,97393.66
2022-11-16T07:13:38.261Z,97391.78
2022-11-16T07:16:07.586Z,97395.50
2022-11-16T07:18:36.737Z,97392.00
2022-11-16T07:21:12.094Z,97387.44
2022-11-16T07:23:39.195Z,97389.28
2022-11-16T07:26:07.932Z,97386.41
2022-11-16T07:28:35.079Z,97385.38
2022-11-16T07:31:03.944Z,97392.63
2022-11-16T07:33:30.994Z,97393.84
2022-11-16T07:36:12.148Z,97391.41
2022-11-16T07:38:39.574Z,97371.94
2022-11-16T07:41:09.551Z,97383.91
2022-11-16T07:43:37.041Z,97387.44
2022-11-16T07:48:58.287Z,97384.75
2022-11-16T07:51:25.457Z,97371.28
2022-11-16T07:53:56.187Z,97376.47
2022-11-16T07:56:23.489Z,97382.25
2022-11-16T07:58:50.530Z,97371.91
2022-11-16T08:01:19.030Z,97373.94
2022-11-16T08:03:47.027Z,97352.44
2022-11-16T08:06:18.031Z,97363.16
2022-11-16T08:08:45.228Z,97368.09
2022-11-16T08:11:13.058Z,97364.34
2022-11-16T08:13:41.404Z,97371.19
2022-11-16T08:16:12.141Z,97368.69
2022-11-16T08:18:40.253Z,97366.19
2022-11-16T08:21:08.995Z,97365.53
2022-11-16T08:23:36.347Z,97363.06
2022-11-16T08:26:09.582Z,97362.47
2022-11-16T08:28:37.490Z,97361.41
2022-11-16T08:31:09.802Z,97353.94
2022-11-16T08:33:36.740Z,97357.22
2022-11-16T08:36:08.294Z,97342.72
2022-11-16T08:38:42.529Z,97353.66
2022-11-16T08:41:09.441Z,97350.59
2022-11-16T08:43:36.476Z,97347.06
2022-11-16T08:46:03.462Z,97347.25
2022-11-16T08:48:31.188Z,97346.78
2022-11-16T08:51:17.341Z,97342.59
2022-11-16T08:53:45.418Z,97352.13
2022-11-16T08:56:13.916Z,97343.44
2022-11-16T08:58:47.615Z,97357.91
2022-11-16T09:01:17.414Z,97350.22
2022-11-16T09:03:45.046Z,97347.09
2022-11-16T09:06:13.203Z,97352.03
2022-11-16T09:08:42.881Z,97346.81
2022-11-16T09:11:14.187Z,97327.22
2022-11-16T09:13:41.054Z,97350.75
2022-11-16T09:16:08.452Z,97350.16
2022-11-16T09:18:35.965Z,97353.91
2022-11-16T09:21:03.649Z,97346.03
2022-11-16T09:23:30.568Z,97337.94
2022-11-16T09:26:01.585Z,97340.88
2022-11-16T09:28:28.656Z,97341.25
2022-11-16T09:31:03.066Z,97343.50
2022-11-16T09:33:31.753Z,97334.16
2022-11-16T09:36:07.260Z,97327.50
2022-11-16T09:41:39.858Z,97328.94
2022-11-16T09:44:15.844Z,97323.28
2022-11-16T09:46:49.946Z,97322.84
2022-11-16T09:49:23.089Z,97319.94
2022-11-16T09:51:54.234Z,97318.69
2022-11-16T09:54:25.135Z,97310.81
2022-11-16T09:56:57.567Z,97299.13
2022-11-16T09:59:29.061Z,97312.69
2022-11-16T10:02:21.623Z,97310.19
2022-11-16T10:04:59.496Z,97303.00
2022-11-16T10:07:33.502Z,97308.63
2022-11-16T10:10:00.549Z,97306.59
2022-11-16T10:12:48.264Z,97303.53
2022-11-16T10:15:50.609Z,97302.91
2022-11-16T10:18:17.485Z,97300.88
2022-11-16T10:21:11.994Z,97298.63
2022-11-16T10:24:16.212Z,97294.09
2022-11-16T10:26:55.600Z,97298.94
2022-11-16T10:29:40.498Z,97289.63
2022-11-16T10:32:29.070Z,97285.84
2022-11-16T10:35:09.382Z,97290.22
2022-11-16T10:37:40.681Z,97281.91
2022-11-16T10:40:18.806Z,97287.09
2022-11-16T10:43:05.938Z,97261.84
2022-11-16T10:45:43.617Z,97282.25
2022-11-16T10:48:43.592Z,97276.41
2022-11-16T10:51:11.102Z,97277.03
2022-11-16T10:53:41.303Z,97279.09
2022-11-16T10:56:13.739Z,97269.81
2022-11-16T10:59:01.071Z,97265.63
2022-11-16T11:01:39.857Z,97263.56
2022-11-16T11:04:27.344Z,97258.53
2022-11-16T11:06:56.905Z,97263.25
2022-11-16T11:09:32.971Z,97264.19
2022-11-16T11:12:20.254Z,97257.72
2022-11-16T11:15:05.960Z,97268.56
2022-11-16T11:17:35.714Z,97271.31
2022-11-16T11:20:04.632Z,97264.78
2022-11-16T11:22:43.265Z,97270.09
2022-11-16T11:25:36.015Z,97263.38
2022-11-16T11:28:31.950Z,97269.34
2022-11-16T11:31:04.779Z,97261.00
2022-11-16T11:33:39.890Z,97257.84
2022-11-16T11:36:21.008Z,97264.44
2022-11-16T11:39:07.553Z,97262.63
2022-11-16T11:41:43.188Z,97261.81
2022-11-16T11:44:12.998Z,97257.53
2022-11-16T11:47:35.230Z,97251.47
2022-11-16T11:49:42.352Z,97242.50
2022-11-16T11:52:22.779Z,97252.47
2022-11-16T11:54:55.005Z,97239.19
2022-11-16T11:57:24.126Z,97238.75
2022-11-16T11:59:54.691Z,97239.47
2022-11-16T12:02:27.157Z,97238.59
2022-11-16T12:05:05.927Z,97240.28
2022-11-16T12:07:32.868Z,97235.81
2022-11-16T12:10:20.921Z,97243.84
2022-11-16T12:13:08.644Z,97237.81
2022-11-16T12:15:46.678Z,97236.47
2022-11-16T12:18:22.156Z,97224.25
2022-11-16T12:21:14.980Z,97225.72
2022-11-16T12:24:05.168Z,97217.06
2022-11-16T12:26:41.541Z,97234.69
2022-11-16T12:29:31.204Z,97226.81
2022-11-16T12:32:09.512Z,97226.06
2022-11-16T12:34:55.241Z,97218.75
2022-11-16T12:37:33.898Z,97214.72
2022-11-16T12:40:20.452Z,97211.22
2022-11-16T12:42:53.358Z,97212.69
2022-11-16T12:45:32.554Z,97222.38
2022-11-16T12:48:18.555Z,97212.72
2022-11-16T12:50:51.314Z,97223.03
2022-11-16T12:53:33.342Z,97199.94
2022-11-16T12:56:22.791Z,97211.91
2022-11-16T12:59:11.125Z,97211.13
2022-11-16T13:02:19.527Z,97202.44
2022-11-16T13:04:57.774Z,97203.06
2022-11-16T13:07:33.354Z,97203.47
2022-11-16T13:10:24.804Z,97212.34
2022-11-16T13:13:21.938Z,97214.41
2022-11-16T13:15:48.052Z,97215.25
2022-11-16T13:18:20.662Z,97210.25
2022-11-16T13:20:50.279Z,97210.06
2022-11-16T13:23:43.738Z,97207.56
2022-11-16T13:26:24.609Z,97205.25
2022-11-16T13:29:09.677Z,97203.19
2022-11-16T13:32:16.381Z,97199.69
2022-11-16T13:34:44.322Z,97201.16
2022-11-16T13:37:39.103Z,97206.94
2022-11-16T13:40:05.939Z,97208.44
2022-11-16T13:42:44.136Z,97204.09
2022-11-16T13:45:22.285Z,97199.63
2022-11-16T13:47:51.310Z,97205.84
2022-11-16T13:50:22.010Z,97216.19
2022-11-16T13:55:59.875Z,97219.72
2022-11-16T13:58:28.926Z,97216.63
2022-11-16T14:01:08.572Z,97219.09
2022-11-16T14:03:41.144Z,97213.94
2022-11-16T14:06:31.088Z,97210.44
2022-11-16T14:08:58.908Z,97211.06
2022-11-16T14:11:35.029Z,97220.34
2022-11-16T14:14:14.035Z,97216.41
2022-11-16T14:16:45.479Z,97205.69
2022-11-16T14:19:49.477Z,97212.66
2022-11-16T14:22:36.973Z,97206.88
2022-11-16T14:25:30.853Z,97199.84
2022-11-16T14:28:14.024Z,97200.91
2022-11-16T14:30:58.658Z,97198.22
2022-11-16T14:33:33.512Z,97185.00
2022-11-16T14:36:03.913Z,97193.47
2022-11-16T14:38:35.443Z,97197.16
2022-11-16T14:41:13.450Z,97187.47
2022-11-16T14:43:44.770Z,97185.81
2022-11-16T14:46:26.317Z,97186.03
2022-11-16T14:48:56.310Z,97172.59
2022-11-16T14:51:50.801Z,97177.97
2022-11-16T14:54:39.303Z,97169.50
2022-11-16T14:57:18.213Z,97178.19
2022-11-16T14:59:45.121Z,97169.50
2022-11-16T15:02:30.135Z,97170.34
2022-11-16T15:04:57.339Z,97164.34
2022-11-16T15:07:26.238Z,97160.84
2022-11-16T15:09:56.723Z,97160.22
2022-11-16T15:12:41.919Z,97161.06
2022-11-16T15:15:17.134Z,97166.59
2022-11-16T15:18:07.023Z,97152.38
2022-11-16T15:20:37.758Z,97177.75
2022-11-16T15:23:13.349Z,97176.09
2022-11-16T15:25:46.233Z,97180.84
2022-11-16T15:28:28.213Z,97184.34
2022-11-16T15:30:58.966Z,97164.13
2022-11-16T15:33:29.719Z,97181.44
2022-11-16T15:35:57.317Z,97181.28
2022-11-16T15:38:33.109Z,97176.94
2022-11-16T15:41:02.729Z,97172.00
2022-11-16T15:44:01.328Z,97177.34
2022-11-16T15:46:33.348Z,97179.00
2022-11-16T15:49:00.996Z,97175.09
2022-11-16T15:51:33.874Z,97187.06
2022-11-16T15:54:30.473Z,97182.09
2022-11-16T15:57:08.186Z,97184.78
2022-11-16T15:59:37.453Z,97190.56
2022-11-16T16:02:05.003Z,97187.06
2022-11-16T16:04:32.065Z,97190.16
2022-11-16T16:07:00.323Z,97198.00
2022-11-16T16:09:28.956Z,97186.44
2022-11-16T16:12:11.087Z,97195.13
2022-11-16T16:14:38.475Z,97191.00
2022-11-16T16:17:05.404Z,97202.34
2022-11-16T16:19:34.379Z,97191.59
2022-11-16T16:22:02.102Z,97211.41
2022-11-16T16:24:44.447Z,97214.94
2022-11-16T16:27:16.742Z,97209.97
2022-11-16T16:29:44.923Z,97209.16
2022-11-16T16:32:30.548Z,97211.00
2022-11-16T16:34:59.608Z,97216.38
2022-11-16T16:37:28.219Z,97211.19
2022-11-16T16:39:55.233Z,97211.19
2022-11-16T16:42:22.385Z,97218.63
2022-11-16T16:44:50.339Z,97212.84
2022-11-16T16:47:20.879Z,97210.16
2022-11-16T16:49:50.519Z,97212.00
2022-11-16T16:52:18.165Z,97209.97
2022-11-16T16:54:45.419Z,97217.81
2022-11-16T16:57:16.742Z,97209.53
2022-11-16T16:59:45.954Z,97205.00
2022-11-16T17:02:13.637Z,97207.03
2022-11-16T17:04:40.953Z,97206.84
2022-11-16T17:07:07.910Z,97198.81
2022-11-16T17:09:36.840Z,97199.59
2022-11-16T17:12:03.852Z,97200.00
2022-11-16T17:14:31.355Z,97195.66
2022-11-16T17:16:59.041Z,97205.56
2022-11-16T17:19:25.940Z,97199.41
2022-11-16T17:21:52.909Z,97205.97
2022-11-16T17:24:20.219Z,97207.00
2022-11-16T17:26:48.534Z,97185.94
2022-11-16T17:29:15.866Z,97210.50
2022-11-16T17:31:44.325Z,97211.34
2022-11-16T17:34:13.845Z,97211.53
2022-11-16T17:36:42.092Z,97205.97
2022-11-16T17:39:09.266Z,97210.69
2022-11-16T17:41:36.371Z,97205.34
2022-11-16T17:44:04.220Z,97218.50
2022-11-16T17:46:31.151Z,97205.31
2022-11-16T17:48:58.167Z,97218.50
2022-11-16T17:51:26.159Z,97199.09
2022-11-16T17:53:53.229Z,97222.63
2022-11-16T17:56:26.326Z,97216.66
2022-11-16T17:58:55.230Z,97223.41
2022-11-16T18:01:22.751Z,97214.13
2022-11-16T18:03:49.717Z,97207.34
2022-11-16T18:06:21.831Z,97212.09
2022-11-16T18:08:49.340Z,97215.19
2022-11-16T18:11:20.952Z,97222.53
2022-11-16T18:13:51.834Z,97212.81
2022-11-16T18:16:21.291Z,97218.34
2022-11-16T18:18:49.387Z,97218.34
2022-11-16T18:21:20.829Z,97215.84
2022-11-16T18:23:47.891Z,97209.16
2022-11-16T18:26:21.347Z,97211.44
2022-11-16T18:28:52.842Z,97215.56
2022-11-16T18:31:22.939Z,97215.78
2022-11-16T18:33:50.138Z,97219.81
2022-11-16T18:36:18.917Z,97216.97
2022-11-16T18:38:46.406Z,97221.91
2022-11-16T18:41:13.259Z,97219.41
2022-11-16T18:43:41.938Z,97214.22
2022-11-16T18:46:09.111Z,97225.50
2022-11-16T18:48:36.032Z,97216.78
2022-11-16T18:51:04.947Z,97212.88
2022-11-16T18:53:33.273Z,97210.03
2022-11-16T18:56:00.595Z,97212.69
2022-11-16T19:01:17.181Z,97213.81
2022-11-16T19:03:44.344Z,97211.81
2022-11-16T19:06:12.024Z,97207.88
2022-11-16T19:08:40.596Z,97215.13
2022-11-16T19:11:16.184Z,97219.56
2022-11-16T19:13:44.398Z,97204.25
2022-11-16T19:16:14.076Z,97217.47
2022-11-16T19:18:41.225Z,97217.34
2022-11-16T19:21:10.248Z,97216.72
2022-11-16T19:23:39.262Z,97221.19
2022-11-16T19:26:07.289Z,97220.13
2022-11-16T19:28:38.294Z,97223.28
2022-11-16T19:31:10.316Z,97225.50
2022-11-16T19:33:38.346Z,97223.34
2022-11-16T19:36:14.499Z,97222.97
2022-11-16T19:38:42.012Z,97226.69
2022-11-16T19:41:11.137Z,97225.69
2022-11-16T19:43:38.902Z,97229.75
2022-11-16T19:46:08.537Z,97215.38
2022-11-16T19:48:35.983Z,97218.63
2022-11-16T19:51:14.757Z,97225.38
2022-11-16T19:53:41.687Z,97229.88
2022-11-16T19:56:11.513Z,97230.88
2022-11-16T19:58:38.803Z,97244.47
2022-11-16T20:01:07.683Z,97235.91
2022-11-16T20:03:35.216Z,97224.88
2022-11-16T20:06:09.371Z,97231.25
2022-11-16T20:08:37.327Z,97228.38
2022-11-16T20:11:15.814Z,97229.78
2022-11-16T20:13:43.243Z,97234.75
2022-11-16T20:16:12.281Z,97236.31
2022-11-16T20:18:40.948Z,97235.50
2022-11-16T20:21:09.357Z,97250.13
2022-11-16T20:23:37.637Z,97245.16
2022-11-16T20:26:06.082Z,97247.75
2022-11-16T20:28:38.366Z,97249.50
2022-11-16T20:31:10.279Z,97245.63
2022-11-16T20:33:37.411Z,97245.91
2022-11-16T20:36:07.970Z,97246.91
2022-11-16T20:38:36.783Z,97246.28
2022-11-16T20:41:22.697Z,97254.91
2022-11-16T20:43:57.832Z,97246.44
2022-11-16T20:46:33.625Z,97246.31
2022-11-16T20:49:02.040Z,97245.69
2022-11-16T20:51:30.083Z,97239.63
2022-11-16T20:53:58.211Z,97239.63
2022-11-16T20:56:25.220Z,97240.53
2022-11-16T20:58:52.146Z,97227.72
2022-11-16T21:01:32.111Z,97237.59
2022-11-16T21:04:01.831Z,97232.59
2022-11-16T21:06:29.207Z,97228.22
2022-11-16T21:08:57.023Z,97222.38
2022-11-16T21:11:30.242Z,97234.44
2022-11-16T21:14:16.413Z,97235.38
2022-11-16T21:16:44.215Z,97235.19
2022-11-16T21:19:11.858Z,97232.78
2022-11-16T21:21:40.670Z,97233.09
2022-11-16T21:24:10.813Z,97229.25
2022-11-16T21:26:38.053Z,97228.59
2022-11-16T21:29:05.569Z,97225.63
2022-11-16T21:31:34.292Z,97232.72
2022-11-16T21:34:01.334Z,97236.50
2022-11-16T21:36:30.496Z,97232.50
2022-11-16T21:38:58.304Z,97236.38
2022-11-16T21:41:26.402Z,97227.00
2022-11-16T21:43:53.536Z,97229.03
2022-11-16T21:46:23.492Z,97230.41
2022-11-16T21:48:51.374Z,97232.09
2022-11-16T21:51:20.345Z,97238.34
2022-11-16T21:53:47.959Z,97228.50
2022-11-16T21:56:20.332Z,97206.50
2022-11-16T21:58:50.035Z,97235.75
2022-11-16T22:01:17.117Z,97240.63
2022-11-16T22:03:44.987Z,97242.75
2022-11-16T22:06:32.926Z,97236.50
2022-11-16T22:09:00.450Z,97242.63
2022-11-16T22:14:18.190Z,97252.00
2022-11-16T22:16:45.250Z,97262.91
2022-11-16T22:19:12.192Z,97249.59
2022-11-16T22:21:39.174Z,97249.19
2022-11-16T22:24:06.494Z,97254.28
2022-11-16T22:26:33.591Z,97242.97
2022-11-16T22:29:00.710Z,97241.38
2022-11-16T22:31:27.741Z,97247.66
2022-11-16T22:33:54.714Z,97248.03
2022-11-16T22:36:21.710Z,97249.38
2022-11-16T22:38:48.640Z,97256.19
2022-11-16T22:41:15.703Z,97228.38
2022-11-16T22:43:42.695Z,97252.69
2022-11-16T22:46:11.153Z,97260.69
2022-11-16T22:48:39.976Z,97263.53
2022-11-16T22:51:18.382Z,97262.06
2022-11-16T22:53:45.362Z,97262.44
2022-11-16T22:56:12.747Z,97256.59
2022-11-16T22:58:40.394Z,97229.94
2022-11-16T23:01:09.617Z,97261.75
2022-11-16T23:03:38.049Z,97258.94
2022-11-16T23:06:06.898Z,97241.16
2022-11-16T23:08:34.900Z,97241.44
2022-11-16T23:11:25.294Z,97240.06
2022-11-16T23:14:12.721Z,97238.19
2022-11-16T23:16:40.763Z,97241.06
2022-11-16T23:19:28.317Z,97244.34
2022-11-16T23:22:14.892Z,97243.19
2022-11-16T23:25:01.231Z,97237.63
2022-11-16T23:27:32.423Z,97229.94
2022-11-16T23:30:04.503Z,97227.91
2022-11-16T23:32:34.950Z,97232.59
2022-11-16T23:35:01.943Z,97231.63
2022-11-16T23:37:28.889Z,97241.91
2022-11-16T23:39:55.925Z,97237.44
2022-11-16T23:42:41.572Z,97232.59
2022-11-16T23:45:08.996Z,97233.06
2022-11-16T23:47:36.030Z,97237.47
2022-11-16T23:50:03.245Z,97231.00
2022-11-16T23:52:30.223Z,97224.81
2022-11-16T23:54:57.220Z,97232.16
2022-11-16T23:57:24.215Z,97225.53
2022-11-16T23:59:51.199Z,97221.03
